createdAt,value
2018-06-10T00:00:13.494Z,25.72
2018-06-10T00:02:41.810Z,24.85
2018-06-10T00:05:10.131Z,22.90
2018-06-10T00:07:38.451Z,25.75
2018-06-10T00:10:06.755Z,26.25
2018-06-10T00:12:35.076Z,26.85
2018-06-10T00:15:03.367Z,24.63
2018-06-10T00:17:31.687Z,26.90
2018-06-10T00:20:00.026Z,26.07
2018-06-10T00:22:28.342Z,24.72
2018-06-10T00:24:56.638Z,22.35
2018-06-10T00:27:24.974Z,24.52
2018-06-10T00:29:53.266Z,25.85
2018-06-10T00:32:21.590Z,20.43
2018-06-10T00:34:49.994Z,24.02
2018-06-10T00:37:18.317Z,20.85
2018-06-10T00:39:46.607Z,23.40
2018-06-10T00:42:14.904Z,22.67
2018-06-10T00:44:43.243Z,24.55
2018-06-10T00:47:11.564Z,23.10
2018-06-10T00:49:39.879Z,18.55
2018-06-10T00:52:08.174Z,17.35
2018-06-10T00:54:36.502Z,16.00
2018-06-10T00:57:04.899Z,16.95
2018-06-10T00:59:33.222Z,17.92
2018-06-10T01:02:01.669Z,19.50
2018-06-10T01:04:30.008Z,19.75
2018-06-10T01:06:58.302Z,22.13
2018-06-10T01:09:26.623Z,22.77
2018-06-10T01:11:54.943Z,18.73
2018-06-10T01:14:23.235Z,14.75
2018-06-10T01:16:51.552Z,7.53
2018-06-10T01:19:19.831Z,10.13
2018-06-10T01:21:48.156Z,7.55
2018-06-10T01:24:16.446Z,6.90
2018-06-10T01:26:50.113Z,7.10
2018-06-10T01:29:19.094Z,7.30
2018-06-10T01:31:47.421Z,8.80
2018-06-10T01:34:15.710Z,8.65
2018-06-10T01:36:44.018Z,11.22
2018-06-10T01:39:12.298Z,12.75
2018-06-10T01:41:40.934Z,9.33
2018-06-10T01:44:09.218Z,9.35
2018-06-10T01:46:37.503Z,8.98
2018-06-10T01:49:05.826Z,12.88
2018-06-10T01:51:34.110Z,10.43
2018-06-10T01:54:02.439Z,10.05
2018-06-10T01:56:31.319Z,11.53
2018-06-10T01:58:59.639Z,11.73
2018-06-10T02:01:27.930Z,10.53
2018-06-10T02:03:56.275Z,9.90
2018-06-10T02:06:24.567Z,11.88
2018-06-10T02:08:53.142Z,11.28
2018-06-10T02:11:21.439Z,11.60
2018-06-10T02:13:49.733Z,13.65
2018-06-10T02:16:18.046Z,19.00
2018-06-10T02:18:46.384Z,11.12
2018-06-10T02:21:14.698Z,15.18
2018-06-10T02:23:43.018Z,12.82
2018-06-10T02:26:11.310Z,11.30
2018-06-10T02:28:39.634Z,13.28
2018-06-10T02:31:07.927Z,12.70
2018-06-10T02:33:36.262Z,13.20
2018-06-10T02:36:04.576Z,10.10
2018-06-10T02:38:32.855Z,16.00
2018-06-10T02:41:00.910Z,13.08
2018-06-10T02:43:29.202Z,11.40
2018-06-10T02:45:57.535Z,17.30
2018-06-10T02:48:25.823Z,13.40
2018-06-10T02:50:54.146Z,13.95
2018-06-10T02:53:22.442Z,15.23
2018-06-10T02:55:50.769Z,13.58
2018-06-10T02:58:19.061Z,12.55
2018-06-10T03:00:47.383Z,10.85
2018-06-10T03:03:16.138Z,11.73
2018-06-10T03:05:44.427Z,13.28
2018-06-10T03:08:12.747Z,11.08
2018-06-10T03:10:41.117Z,13.50
2018-06-10T03:13:09.162Z,13.68
2018-06-10T03:15:37.462Z,15.83
2018-06-10T03:18:05.789Z,12.37
2018-06-10T03:20:34.082Z,15.05
2018-06-10T03:23:02.402Z,13.32
2018-06-10T03:25:30.698Z,12.37
2018-06-10T03:27:59.032Z,12.45
2018-06-10T03:30:27.331Z,17.15
2018-06-10T03:32:55.662Z,12.37
2018-06-10T03:35:23.983Z,14.20
2018-06-10T03:37:52.267Z,13.05
2018-06-10T03:40:20.591Z,12.70
2018-06-10T03:42:48.879Z,17.92
2018-06-10T03:45:17.198Z,15.95
2018-06-10T03:47:45.519Z,13.68
2018-06-10T03:50:13.847Z,14.23
2018-06-10T03:52:42.142Z,16.67
2018-06-10T03:55:10.470Z,25.55
2018-06-10T03:57:38.758Z,15.68
2018-06-10T04:00:06.789Z,14.73
2018-06-10T04:02:35.082Z,15.50
2018-06-10T04:05:03.532Z,17.12
2018-06-10T04:07:31.854Z,16.20
2018-06-10T04:10:00.150Z,16.90
2018-06-10T04:12:28.475Z,16.07
2018-06-10T04:14:56.770Z,16.17
2018-06-10T04:17:25.087Z,14.87
2018-06-10T04:19:53.378Z,20.62
2018-06-10T04:22:21.699Z,19.15
2018-06-10T04:24:49.994Z,20.15
2018-06-10T04:27:18.311Z,18.95
2018-06-10T04:29:46.608Z,18.85
2018-06-10T04:32:14.922Z,16.60
2018-06-10T04:34:43.214Z,19.12
2018-06-10T04:37:11.543Z,20.80
2018-06-10T04:39:39.834Z,16.30
2018-06-10T04:42:07.866Z,16.70
2018-06-10T04:44:36.198Z,18.10
2018-06-10T04:47:04.554Z,18.07
2018-06-10T04:49:32.866Z,21.02
2018-06-10T04:52:01.192Z,17.73
2018-06-10T04:54:29.499Z,19.77
2018-06-10T04:56:57.831Z,17.20
2018-06-10T04:59:26.155Z,17.87
2018-06-10T05:01:54.603Z,18.50
2018-06-10T05:04:22.951Z,16.17
2018-06-10T05:06:51.271Z,18.45
2018-06-10T05:09:19.590Z,18.62
2018-06-10T05:11:47.882Z,22.22
2018-06-10T05:14:16.202Z,25.97
2018-06-10T05:16:44.538Z,19.00
2018-06-10T05:19:12.814Z,19.52
2018-06-10T05:21:41.147Z,21.40
2018-06-10T05:24:09.431Z,17.95
2018-06-10T05:26:37.753Z,21.85
2018-06-10T05:29:06.042Z,17.62
2018-06-10T05:31:34.353Z,24.63
2018-06-10T05:34:02.682Z,19.42
2018-06-10T05:36:31.001Z,20.70
2018-06-10T05:38:59.281Z,23.12
2018-06-10T05:41:27.615Z,20.12
2018-06-10T05:43:55.909Z,22.60
2018-06-10T05:46:24.223Z,17.20
2018-06-10T05:48:52.554Z,19.80
2018-06-10T05:51:20.930Z,21.52
2018-06-10T05:53:49.183Z,19.70
2018-06-10T05:56:17.479Z,20.60
2018-06-10T05:58:45.800Z,22.48
2018-06-10T06:01:14.100Z,21.25
2018-06-10T06:03:42.414Z,19.42
2018-06-10T06:06:10.711Z,23.18
2018-06-10T06:08:39.035Z,24.20
2018-06-10T06:11:07.353Z,26.25
2018-06-10T06:13:35.669Z,25.40
2018-06-10T06:16:03.982Z,21.48
2018-06-10T06:18:32.302Z,25.50
2018-06-10T06:21:00.591Z,22.30
2018-06-10T06:23:28.911Z,24.65
2018-06-10T06:25:57.196Z,21.62
2018-06-10T06:28:25.515Z,26.95
2018-06-10T06:30:53.794Z,25.20
2018-06-10T06:33:22.095Z,23.70
2018-06-10T06:35:50.406Z,25.20
2018-06-10T06:38:18.726Z,22.73
2018-06-10T06:40:47.046Z,25.95
2018-06-10T06:43:15.367Z,22.42
2018-06-10T06:45:43.682Z,22.15
2018-06-10T06:48:12.031Z,19.20
2018-06-10T06:50:40.358Z,23.02
2018-06-10T06:53:08.678Z,21.42
2018-06-10T06:55:36.975Z,21.60
2018-06-10T06:58:05.319Z,23.20
2018-06-10T07:00:33.615Z,20.12
2018-06-10T07:03:01.960Z,20.72
2018-06-10T07:05:30.258Z,21.87
2018-06-10T07:07:58.615Z,21.68
2018-06-10T07:10:26.903Z,19.07
2018-06-10T07:12:55.194Z,20.72
2018-06-10T07:15:23.515Z,22.42
2018-06-10T07:17:51.834Z,23.25
2018-06-10T07:20:20.154Z,22.75
2018-06-10T07:22:48.486Z,21.80
2018-06-10T07:25:16.795Z,21.15
2018-06-10T07:27:45.113Z,24.57
2018-06-10T07:30:13.411Z,22.65
2018-06-10T07:32:41.738Z,26.00
2018-06-10T07:35:10.066Z,24.87
2018-06-10T07:37:38.383Z,27.05
2018-06-10T07:40:06.859Z,27.82
2018-06-10T07:42:35.147Z,23.07
2018-06-10T07:45:03.466Z,24.80
2018-06-10T07:47:31.786Z,30.20
2018-06-10T07:50:00.107Z,31.62
2018-06-10T07:52:28.411Z,25.27
2018-06-10T07:54:56.743Z,27.80
2018-06-10T07:57:25.058Z,27.20
2018-06-10T07:59:53.371Z,24.92
2018-06-10T08:02:21.959Z,27.00
2018-06-10T08:04:50.250Z,25.68
2018-06-10T08:07:18.538Z,25.30
2018-06-10T08:09:46.868Z,26.97
2018-06-10T08:12:15.150Z,28.38
2018-06-10T08:14:43.474Z,25.52
2018-06-10T08:17:11.779Z,26.55
2018-06-10T08:19:40.110Z,27.02
2018-06-10T08:22:08.432Z,29.72
2018-06-10T08:24:36.738Z,27.50
2018-06-10T08:27:05.026Z,31.62
2018-06-10T08:29:33.356Z,28.92
2018-06-10T08:32:01.748Z,28.45
2018-06-10T08:34:30.011Z,31.73
2018-06-10T08:36:58.303Z,32.35
2018-06-10T08:39:26.646Z,28.00
2018-06-10T08:41:54.942Z,31.35
2018-06-10T08:44:23.275Z,35.43
2018-06-10T08:46:51.559Z,31.17
2018-06-10T08:49:19.874Z,35.00
2018-06-10T08:51:48.191Z,37.05
2018-06-10T08:54:16.514Z,36.65
2018-06-10T08:56:44.831Z,37.80
2018-06-10T08:59:13.174Z,38.88
2018-06-10T09:01:41.490Z,42.93
2018-06-10T09:04:09.790Z,41.63
2018-06-10T09:06:38.102Z,36.85
2018-06-10T09:09:09.179Z,33.85
2018-06-10T09:11:37.814Z,34.98
2018-06-10T09:14:06.107Z,36.42
2018-06-10T09:16:34.898Z,43.52
2018-06-10T09:19:03.207Z,40.40
2018-06-10T09:21:31.526Z,45.92
2018-06-10T09:23:59.848Z,44.38
2018-06-10T09:26:28.166Z,51.40
2018-06-10T09:28:56.489Z,47.25
2018-06-10T09:31:24.814Z,53.45
2018-06-10T09:33:53.123Z,55.30
2018-06-10T09:36:21.426Z,50.73
2018-06-10T09:38:49.746Z,53.52
2018-06-10T09:41:18.043Z,46.98
2018-06-10T09:43:46.371Z,45.45
2018-06-10T09:46:14.667Z,47.38
2018-06-10T09:48:43.018Z,54.23
2018-06-10T09:51:11.306Z,50.80
2018-06-10T09:53:39.634Z,58.30
2018-06-10T09:56:07.938Z,57.40
2018-06-10T09:58:36.270Z,57.62
2018-06-10T10:01:04.639Z,57.70
2018-06-10T10:03:32.970Z,67.47
2018-06-10T10:06:01.303Z,76.62
2018-06-10T10:08:29.602Z,92.08
2018-06-10T10:10:58.072Z,98.60
2018-06-10T10:13:26.374Z,89.07
2018-06-10T10:15:54.717Z,60.12
2018-06-10T10:18:23.006Z,69.50
2018-06-10T10:20:51.330Z,69.45
2018-06-10T10:23:19.662Z,68.12
2018-06-10T10:25:47.979Z,68.92
2018-06-10T10:28:16.274Z,71.97
2018-06-10T10:30:44.582Z,71.60
2018-06-10T10:33:12.906Z,67.15
2018-06-10T10:35:41.235Z,73.25
2018-06-10T10:38:09.523Z,65.95
2018-06-10T10:40:37.858Z,77.62
2018-06-10T10:43:06.178Z,78.78
2018-06-10T10:45:34.471Z,89.67
2018-06-10T10:48:02.846Z,83.58
2018-06-10T10:50:31.137Z,88.87
2018-06-10T10:52:59.467Z,83.70
2018-06-10T10:55:27.755Z,76.87
2018-06-10T10:57:56.075Z,78.47
2018-06-10T11:00:24.366Z,71.85
2018-06-10T11:02:52.699Z,79.65
2018-06-10T11:05:21.022Z,78.62
2018-06-10T11:07:49.322Z,71.50
2018-06-10T11:10:17.653Z,78.67
2018-06-10T11:12:45.939Z,81.72
2018-06-10T11:15:14.271Z,68.92
2018-06-10T11:17:42.613Z,80.10
2018-06-10T11:20:10.931Z,79.25
2018-06-10T11:22:39.318Z,74.30
2018-06-10T11:25:07.612Z,71.35
2018-06-10T11:27:35.939Z,70.40
2018-06-10T11:30:04.240Z,67.70
2018-06-10T11:32:32.559Z,77.62
2018-06-10T11:35:00.862Z,75.05
2018-06-10T11:37:29.182Z,73.17
2018-06-10T11:39:57.482Z,70.95
2018-06-10T11:42:25.864Z,72.92
2018-06-10T11:44:54.135Z,70.35
2018-06-10T11:47:22.503Z,66.40
2018-06-10T11:49:50.858Z,57.80
2018-06-10T11:52:19.154Z,65.50
2018-06-10T11:54:47.478Z,61.25
2018-06-10T11:57:15.774Z,62.35
2018-06-10T11:59:44.128Z,66.42
2018-06-10T12:02:12.428Z,62.55
2018-06-10T12:04:40.758Z,58.40
2018-06-10T12:07:09.072Z,65.15
2018-06-10T12:09:37.414Z,55.58
2018-06-10T12:12:05.708Z,63.45
2018-06-10T12:14:34.023Z,61.70
2018-06-10T12:17:02.322Z,57.70
2018-06-10T12:19:30.622Z,63.48
2018-06-10T12:21:58.944Z,60.60
2018-06-10T12:24:27.244Z,61.00
2018-06-10T12:26:55.567Z,60.80
2018-06-10T12:29:23.895Z,62.33
2018-06-10T12:31:52.174Z,55.55
2018-06-10T12:34:20.502Z,57.50
2018-06-10T12:36:48.838Z,63.75
2018-06-10T12:39:17.183Z,52.35
2018-06-10T12:41:45.495Z,56.83
2018-06-10T12:44:13.814Z,49.93
2018-06-10T12:46:42.115Z,55.00
2018-06-10T12:49:10.525Z,62.48
2018-06-10T12:51:38.747Z,62.10
2018-06-10T12:54:07.059Z,48.35
2018-06-10T12:56:35.354Z,55.70
2018-06-10T12:59:03.695Z,53.52
2018-06-10T13:01:32.016Z,56.00
2018-06-10T13:04:00.320Z,53.38
2018-06-10T13:06:28.639Z,47.70
2018-06-10T13:08:56.935Z,55.58
2018-06-10T13:11:25.254Z,53.48
2018-06-10T13:13:53.542Z,46.80
2018-06-10T13:16:22.199Z,51.68
2018-06-10T13:18:50.490Z,52.35
2018-06-10T13:21:18.779Z,55.43
2018-06-10T13:23:47.090Z,54.45
2018-06-10T13:26:15.389Z,62.25
2018-06-10T13:28:43.715Z,45.83
2018-06-10T13:31:12.162Z,50.45
2018-06-10T13:33:40.484Z,69.65
2018-06-10T13:36:08.804Z,136.00
2018-06-10T13:38:37.130Z,69.60
2018-06-10T13:41:05.475Z,56.45
2018-06-10T13:43:33.799Z,63.05
2018-06-10T13:46:02.132Z,62.10
2018-06-10T13:48:30.470Z,58.15
2018-06-10T13:50:58.763Z,57.25
2018-06-10T13:53:27.083Z,58.33
2018-06-10T13:55:55.407Z,59.00
2018-06-10T13:58:24.294Z,54.75
2018-06-10T14:00:52.638Z,62.03
2018-06-10T14:03:20.934Z,59.83
2018-06-10T14:05:49.227Z,67.08
2018-06-10T14:08:17.542Z,61.23
2018-06-10T14:10:45.826Z,67.25
2018-06-10T14:13:14.145Z,60.25
2018-06-10T14:15:42.438Z,62.23
2018-06-10T14:18:10.767Z,56.83
2018-06-10T14:20:39.066Z,54.45
2018-06-10T14:23:07.356Z,57.50
2018-06-10T14:25:35.683Z,58.90
2018-06-10T14:28:03.972Z,62.03
2018-06-10T14:30:32.298Z,59.70
2018-06-10T14:33:00.590Z,51.85
2018-06-10T14:35:28.887Z,60.28
2018-06-10T14:37:57.277Z,63.00
2018-06-10T14:40:25.515Z,63.23
2018-06-10T14:42:53.823Z,61.20
2018-06-10T14:45:22.134Z,59.88
2018-06-10T14:47:50.525Z,60.92
2018-06-10T14:50:18.806Z,62.05
2018-06-10T14:52:47.102Z,60.52
2018-06-10T14:55:15.427Z,58.87
2018-06-10T14:57:43.717Z,57.08
2018-06-10T15:00:12.062Z,57.33
2018-06-10T15:02:40.350Z,58.58
2018-06-10T15:05:08.679Z,59.70
2018-06-10T15:07:37.002Z,57.78
2018-06-10T15:10:05.310Z,56.15
2018-06-10T15:12:33.639Z,44.23
2018-06-10T15:15:01.931Z,47.03
2018-06-10T15:17:30.453Z,48.15
2018-06-10T15:19:58.746Z,41.37
2018-06-10T15:22:27.084Z,44.80
2018-06-10T15:24:55.374Z,46.23
2018-06-10T15:27:23.710Z,38.98
2018-06-10T15:29:52.023Z,34.43
2018-06-10T15:32:20.348Z,30.95
2018-06-10T15:34:48.671Z,31.37
2018-06-10T15:37:16.994Z,31.02
2018-06-10T15:39:45.326Z,27.00
2018-06-10T15:42:13.651Z,30.48
2018-06-10T15:44:41.975Z,25.75
2018-06-10T15:47:10.303Z,23.47
2018-06-10T15:49:38.656Z,22.35
2018-06-10T15:52:06.966Z,18.02
2018-06-10T15:54:35.302Z,19.30
2018-06-10T15:57:03.607Z,23.98
2018-06-10T15:59:32.610Z,19.17
2018-06-10T16:02:00.963Z,15.72
2018-06-10T16:04:29.359Z,22.25
2018-06-10T16:06:57.686Z,19.23
2018-06-10T16:09:25.970Z,20.10
2018-06-10T16:11:54.302Z,17.60
2018-06-10T16:14:22.595Z,14.70
2018-06-10T16:16:50.943Z,20.32
2018-06-10T16:19:19.240Z,19.77
2018-06-10T16:21:47.551Z,16.90
2018-06-10T16:24:15.875Z,19.07
2018-06-10T16:26:44.176Z,16.60
2018-06-10T16:29:12.495Z,16.87
2018-06-10T16:31:40.791Z,17.80
2018-06-10T16:34:09.126Z,16.90
2018-06-10T16:36:37.395Z,23.20
2018-06-10T16:39:08.342Z,16.37
2018-06-10T16:41:36.695Z,18.27
2018-06-10T16:44:05.120Z,17.70
2018-06-10T16:46:33.406Z,23.55
2018-06-10T16:49:01.751Z,17.50
2018-06-10T16:51:30.059Z,21.73
2018-06-10T16:53:58.406Z,19.98
2018-06-10T16:56:26.728Z,21.68
2018-06-10T16:58:55.014Z,21.70
2018-06-10T17:01:23.375Z,22.27
2018-06-10T17:03:51.698Z,22.82
2018-06-10T17:06:19.714Z,19.25
2018-06-10T17:08:48.051Z,19.17
2018-06-10T17:11:16.346Z,19.95
2018-06-10T17:13:44.650Z,21.80
2018-06-10T17:16:13.039Z,21.15
2018-06-10T17:18:41.278Z,19.62
2018-06-10T17:21:09.620Z,20.12
2018-06-10T17:23:37.906Z,20.23
2018-06-10T17:26:06.230Z,20.52
2018-06-10T17:28:34.532Z,21.82
2018-06-10T17:31:02.850Z,21.12
2018-06-10T17:33:31.167Z,23.70
2018-06-10T17:35:59.497Z,21.52
2018-06-10T17:38:27.818Z,27.98
2018-06-10T17:40:56.110Z,22.25
2018-06-10T17:43:24.475Z,23.10
2018-06-10T17:45:52.774Z,21.65
2018-06-10T17:48:21.129Z,22.22
2018-06-10T17:50:49.395Z,19.70
2018-06-10T17:53:17.718Z,23.07
2018-06-10T17:55:46.014Z,21.82
2018-06-10T17:58:14.343Z,25.57
2018-06-10T18:00:42.709Z,23.77
2018-06-10T18:03:11.010Z,22.62
2018-06-10T18:05:39.303Z,23.45
2018-06-10T18:08:08.629Z,22.80
2018-06-10T18:10:37.845Z,21.40
2018-06-10T18:13:07.899Z,20.45
2018-06-10T18:15:36.447Z,21.25
2018-06-10T18:18:04.783Z,23.87
2018-06-10T18:20:33.126Z,20.32
2018-06-10T18:23:01.455Z,21.62
2018-06-10T18:25:30.331Z,18.52
2018-06-10T18:27:58.621Z,18.98
2018-06-10T18:30:26.937Z,21.45
2018-06-10T18:32:55.239Z,19.05
2018-06-10T18:36:01.632Z,20.48
2018-06-10T18:38:36.247Z,20.43
2018-06-10T18:41:11.014Z,19.37
2018-06-10T18:45:16.338Z,21.33
2018-06-10T18:47:50.178Z,20.43
2018-06-10T18:50:25.031Z,18.60
2018-06-10T18:52:59.651Z,18.03
2018-06-10T18:55:34.490Z,23.50
2018-06-10T18:58:09.186Z,20.17
2018-06-10T19:00:44.510Z,22.03
2018-06-10T19:03:19.304Z,21.00
2018-06-10T19:05:54.346Z,22.33
2018-06-10T19:08:29.358Z,20.27
2018-06-10T19:11:46.706Z,22.90
2018-06-10T19:14:21.616Z,19.00
2018-06-10T19:16:56.515Z,23.57
2018-06-10T19:19:31.418Z,22.90
2018-06-10T19:22:06.342Z,23.17
2018-06-10T19:24:41.332Z,20.53
2018-06-10T19:27:16.366Z,25.60
2018-06-10T19:29:51.382Z,22.73
2018-06-10T19:32:26.269Z,24.37
2018-06-10T19:35:01.210Z,21.13
2018-06-10T19:37:36.143Z,22.53
2018-06-10T19:40:11.128Z,22.43
2018-06-10T19:45:05.048Z,21.47
2018-06-10T19:47:33.995Z,18.00
2018-06-10T19:50:38.255Z,23.43
2018-06-10T19:53:08.645Z,23.20
2018-06-10T19:55:39.003Z,21.93
2018-06-10T19:58:09.399Z,25.57
2018-06-10T20:00:39.963Z,19.90
2018-06-10T20:03:10.378Z,22.70
2018-06-10T20:05:40.735Z,22.93
2018-06-10T20:08:11.127Z,21.93
2018-06-10T20:10:41.503Z,21.23
2018-06-10T20:13:11.354Z,23.00
2018-06-10T20:15:41.215Z,21.43
2018-06-10T20:18:11.068Z,20.80
2018-06-10T20:20:40.911Z,18.13
2018-06-10T20:23:10.749Z,19.73
2018-06-10T20:25:40.602Z,24.23
2018-06-10T20:28:10.430Z,21.57
2018-06-10T20:30:40.911Z,27.13
2018-06-10T20:33:11.386Z,20.67
2018-06-10T20:35:41.816Z,23.70
2018-06-10T20:38:12.362Z,24.23
2018-06-10T20:40:42.757Z,20.93
2018-06-10T20:43:13.118Z,22.23
2018-06-10T20:45:43.517Z,20.97
2018-06-10T20:48:13.902Z,24.50
2018-06-10T20:50:44.295Z,19.23
2018-06-10T20:53:14.694Z,23.90
2018-06-10T20:55:45.078Z,23.57
2018-06-10T20:58:15.468Z,23.67
2018-06-10T21:00:45.897Z,24.67
2018-06-10T21:03:16.299Z,25.37
2018-06-10T21:05:46.687Z,24.70
2018-06-10T21:08:17.102Z,25.17
2018-06-10T21:10:47.659Z,22.23
2018-06-10T21:13:18.043Z,29.00
2018-06-10T21:15:48.514Z,25.07
2018-06-10T21:18:18.873Z,23.60
2018-06-10T21:20:49.247Z,27.93
2018-06-10T21:23:19.634Z,27.63
2018-06-10T21:25:50.031Z,28.13
2018-06-10T21:28:20.426Z,23.17
2018-06-10T21:30:50.794Z,23.20
2018-06-10T21:33:21.195Z,25.03
2018-06-10T21:35:51.581Z,24.87
2018-06-10T21:38:22.005Z,24.83
2018-06-10T21:40:52.386Z,29.07
2018-06-10T21:43:23.054Z,25.30
2018-06-10T21:45:53.475Z,32.37
2018-06-10T21:48:23.822Z,25.37
2018-06-10T21:50:54.498Z,23.38
2018-06-10T21:53:25.155Z,24.87
2018-06-10T21:55:55.853Z,25.15
2018-06-10T21:58:26.509Z,24.57
2018-06-10T22:00:57.723Z,26.07
2018-06-10T22:03:28.371Z,25.43
2018-06-10T22:05:59.059Z,25.00
2018-06-10T22:08:29.749Z,23.57
2018-06-10T22:11:00.375Z,27.27
2018-06-10T22:13:31.036Z,23.32
2018-06-10T22:16:01.457Z,27.73
2018-06-10T22:18:32.106Z,25.10
2018-06-10T22:21:02.503Z,29.70
2018-06-10T22:23:32.882Z,27.40
2018-06-10T22:26:03.571Z,23.42
2018-06-10T22:28:34.455Z,21.62
2018-06-10T22:31:05.116Z,23.92
2018-06-10T22:33:35.786Z,25.17
2018-06-10T22:36:06.144Z,26.10
2018-06-10T22:38:35.358Z,26.87
2018-06-10T22:41:05.722Z,26.77
2018-06-10T22:43:36.110Z,26.57
2018-06-10T22:46:06.782Z,24.60
2018-06-10T22:48:37.186Z,25.73
2018-06-10T22:51:07.838Z,24.27
2018-06-10T22:54:17.915Z,24.37
2018-06-10T22:56:48.598Z,21.93
2018-06-10T22:59:19.258Z,20.05
2018-06-10T23:01:49.660Z,25.73
2018-06-10T23:04:20.311Z,23.75
2018-06-10T23:06:50.694Z,25.90
2018-06-10T23:09:21.355Z,23.18
2018-06-10T23:11:52.035Z,24.23
2018-06-10T23:14:22.387Z,29.50
2018-06-10T23:16:53.071Z,24.67
2018-06-10T23:19:23.730Z,22.60
2018-06-10T23:21:54.430Z,22.77
2018-06-10T23:24:24.790Z,27.47
2018-06-10T23:26:55.484Z,21.65
2018-06-10T23:29:25.847Z,25.53
2018-06-10T23:31:56.543Z,23.90
2018-06-10T23:34:27.202Z,24.15
2018-06-10T23:36:57.898Z,23.67
2018-06-10T23:39:28.549Z,24.27
2018-06-10T23:41:58.932Z,26.03
2018-06-10T23:44:29.280Z,30.50
2018-06-10T23:46:59.863Z,26.73
2018-06-10T23:49:30.269Z,28.60
2018-06-10T23:52:00.649Z,26.70
2018-06-10T23:54:31.020Z,30.53
2018-06-10T23:57:01.410Z,27.07
2018-06-10T23:59:31.779Z,26.27
